Latest Weather Observations for Coober Pedy Airport

IDS60801

Issued at 4:32 pm CDT Monday 30 March 2015 (issued every 30 minutes, with the page automatically refreshed every 10 minutes)

About weather observations | Map of weather stations | Latest weather observations for SA | Other Formats
Station Details ID: 016090 Name: COOBER PEDY AIRPORT Lat: -29.03 Lon: 134.72 Height: 225.0 m
Data from the previous 72 hours. | See also: Recent months at Coober Pedy Airport
Date/Time
CDT
Temp
°C
App
Temp
°C
Dew
Point
Rel
Hum
%
Delta-T
°C
Wind Press
QNH
hPa
Press
MSL
hPa
Rain
since 9 am
mm
Dir
 
Spd
km/h
Gust
km/h
Spd
kts
Gust
kts
30/04:30pm 30.6 26.0 3.6 18 13.9 SE 17 30 9 16 1021.0 1019.9 0.0
30/04:00pm 30.4 26.5 3.4 18 13.8 ESE 13 22 7 12 1021.3 1020.2 0.0
30/03:30pm 30.7 26.1 3.7 18 13.9 E 17 28 9 15 1021.5 1020.4 0.0
30/03:00pm 30.6 25.8 4.4 19 13.6 E 19 32 10 17 1021.9 1020.8 0.0
30/02:30pm 29.8 24.5 5.1 21 12.9 E 22 32 12 17 1022.3 1021.1 0.0
30/02:00pm 29.9 24.8 5.9 22 12.8 NE 22 35 12 19 1022.7 1021.6 0.0
30/01:30pm 29.4 24.6 5.5 22 12.6 ENE 20 32 11 17 1023.0 1021.9 0.0
30/01:00pm 29.1 24.0 5.9 23 12.3 NE 22 33 12 18 1023.5 1022.4 0.0
30/12:30pm 28.3 22.8 5.8 24 11.8 ENE 24 32 13 17 1023.8 1022.7 0.0
30/12:00pm 27.3 21.5 6.1 26 11.1 ENE 26 33 14 18 1024.1 1023.0 0.0
30/11:30am 26.6 21.6 6.6 28 10.5 NE 22 30 12 16 1024.5 1023.4 0.0
30/11:00am 25.8 21.0 5.4 27 10.5 NE 20 28 11 15 1024.7 1023.6 0.0
30/10:30am 24.3 19.0 5.1 29 9.7 NE 22 30 12 16 1024.7 1023.6 0.0
30/10:00am 22.6 17.0 3.7 29 9.3 NNE 22 26 12 14 1024.7 1023.6 0.0
30/09:30am 20.7 15.5 3.4 32 8.3 NNE 20 24 11 13 1024.5 1023.4 0.0
30/09:00am 19.0 13.9 3.2 35 7.4 NNE 19 22 10 12 1024.2 1023.1 0.2
30/08:30am 17.3 12.5 2.5 37 6.8 NNE 17 20 9 11 1023.8 1022.7 0.2
30/08:00am 16.1 10.9 2.5 40 6.2 NNE 19 20 10 11 1023.4 1022.3 0.2
30/07:30am 16.0 10.8 2.4 40 6.1 NNE 19 20 10 11 1023.1 1022.0 0.2
30/07:00am 16.1 10.9 2.5 40 6.2 NNE 19 20 10 11 1022.5 1021.3 0.2
30/06:30am 16.4 11.2 2.4 39 6.4 NE 19 20 10 11 1022.4 1021.2 0.2
30/06:00am 16.5 11.3 2.5 39 6.4 NE 19 20 10 11 1022.1 1020.9 0.2
30/05:30am 16.8 11.4 2.4 38 6.6 NE 20 22 11 12 1021.6 1020.5 0.2
30/05:00am 17.2 12.1 2.8 38 6.7 NE 19 20 10 11 1021.4 1020.3 0.2
30/04:30am 17.9 12.6 3.0 37 6.9 NE 20 22 11 12 1021.4 1020.3 0.2
30/04:00am 18.1 13.0 3.2 37 7.0 NE 19 20 10 11 1021.5 1020.4 0.2
30/03:30am 18.2 13.2 3.7 38 6.9 NE 19 20 10 11 1021.5 1020.4 0.2
30/03:00am 18.3 13.7 3.8 38 6.9 NE 17 19 9 10 1021.7 1020.6 0.2
30/02:30am 18.9 14.0 3.9 37 7.2 NE 19 20 10 11 1021.8 1020.7 0.2
30/02:00am 18.9 14.3 3.5 36 7.3 NE 17 19 9 10 1022.1 1020.9 0.2
30/01:30am 18.9 14.6 3.5 36 7.3 NNE 15 17 8 9 1022.3 1021.1 0.2
30/01:00am 19.4 15.2 3.6 35 7.6 NNE 15 17 8 9 1022.8 1021.7 0.2
30/12:30am 19.5 15.3 3.6 35 7.6 NNE 15 17 8 9 1022.9 1021.8 0.2
30/12:00am 20.3 15.7 3.9 34 7.9 NE 17 17 9 9 1022.9 1021.8 0.2
 
Date/Time
CDT
Temp
°C
App
Temp
°C
Dew
Point
Rel
Hum
%
Delta-T
°C
Wind Press
QNH
hPa
Press
MSL
hPa
Rain
since 9 am
mm
Dir
 
Spd
km/h
Gust
km/h
Spd
kts
Gust
kts
29/11:30pm 20.9 16.7 4.0 33 8.2 NNE 15 17 8 9 1023.2 1022.1 0.2
29/11:00pm 21.2 16.6 3.9 32 8.4 NNE 17 17 9 9 1023.2 1022.1 0.2
29/10:30pm 21.9 17.7 4.0 31 8.7 NNE 15 19 8 10 1023.2 1022.1 0.2
29/10:00pm 22.5 18.4 4.5 31 8.9 NNE 15 17 8 9 1023.0 1021.9 0.2
29/09:30pm 23.3 19.7 4.8 30 9.3 NNE 13 15 7 8 1022.7 1021.6 0.2
29/09:00pm 24.0 20.9 5.4 30 9.5 NE 11 15 6 8 1022.2 1021.0 0.2
29/08:30pm 25.3 21.9 6.0 29 10.0 NE 13 17 7 9 1022.1 1020.9 0.2
29/08:00pm 25.9 23.2 5.5 27 10.6 NE 9 13 5 7 1021.5 1020.4 0.2
29/07:30pm 27.1 23.7 6.0 26 11.1 ENE 13 15 7 8 1021.1 1020.0 0.2
29/07:00pm 27.8 25.2 6.0 25 11.5 NNE 9 17 5 9 1020.9 1019.8 0.2
29/06:30pm 28.1 25.9 6.2 25 11.6 E 7 15 4 8 1020.7 1019.6 0.2
29/06:00pm 28.5 26.3 6.0 24 11.9 N 7 20 4 11 1020.6 1019.5 0.2
29/05:30pm 28.5 26.4 6.0 24 11.9 ESE 6 15 3 8 1020.5 1019.4 0.2
29/05:00pm 28.6 25.6 6.1 24 12.0 E 11 17 6 9 1020.6 1019.5 0.2
29/04:30pm 27.6 25.3 5.8 25 11.4 SE 7 15 4 8 1020.5 1019.4 0.2
29/04:00pm 28.2 24.9 6.3 25 11.6 NE 13 24 7 13 1020.9 1019.8 0.2
29/03:30pm 28.4 25.3 7.1 26 11.5 NNE 13 28 7 15 1021.1 1020.0 0.2
29/03:00pm 27.4 23.4 6.8 27 11.0 NE 17 24 9 13 1021.6 1020.5 0.2
29/02:30pm 27.0 22.5 6.9 28 10.7 NNE 20 30 11 16 1022.3 1021.1 0.2
29/02:00pm 25.8 22.3 7.4 31 9.8 NE 15 24 8 13 1022.6 1021.5 0.2
29/01:30pm 26.3 22.2 7.8 31 10.0 NE 19 28 10 15 1023.0 1021.9 0.2
29/01:00pm 25.5 20.9 8.1 33 9.4 NNE 22 35 12 19 1023.4 1022.3 0.2
29/12:30pm 24.9 20.3 9.6 38 8.4 NE 24 35 13 19 1023.7 1022.6 0.2
29/12:00pm 24.0 19.7 9.2 39 8.1 NE 22 32 12 17 1023.8 1022.7 0.2
29/11:30am 23.2 19.3 9.6 42 7.4 ENE 20 24 11 13 1023.7 1022.6 0.0
29/11:00am 21.9 17.5 8.8 43 7.0 E 22 28 12 15 1023.5 1022.4 0.0
29/10:30am 20.6 15.8 8.9 47 6.2 E 24 30 13 16 1023.5 1022.4 0.0
29/10:00am 18.6 14.9 10.2 58 4.5 ESE 20 24 11 13 1023.5 1022.4 0.0
29/09:30am 18.4 15.4 10.5 60 4.3 E 17 20 9 11 1023.0 1021.9 0.0
29/09:00am 17.9 14.6 10.8 63 3.8 E 19 20 10 11 1022.3 1021.1 0.4
29/08:30am 17.1 14.1 10.5 65 3.5 E 17 20 9 11 1021.9 1020.8 0.4
29/08:00am 16.8 14.3 10.9 68 3.2 E 15 19 8 10 1021.9 1020.8 0.4
29/07:30am 16.9 13.9 10.7 67 3.3 E 17 20 9 11 1021.9 1020.8 0.4
29/07:00am 16.9 14.7 12.0 73 2.7 E 15 17 8 9 1021.5 1020.4 0.2
29/06:30am 17.8 15.3 10.9 64 3.7 ESE 15 17 8 9 1021.3 1020.2 0.2
29/06:00am 18.4 16.3 11.0 62 4.0 SE 13 15 7 8 1021.2 1020.1 0.2
29/05:30am 18.7 16.6 11.3 62 4.1 SE 13 15 7 8 1021.2 1020.1 0.2
29/05:00am 18.8 18.1 13.2 70 3.2 ESE 9 11 5 6 1021.3 1020.2 0.2
29/04:30am 18.8 17.6 12.8 68 3.4 ESE 11 13 6 7 1021.1 1020.0 0.2
29/04:00am 19.3 18.5 11.8 62 4.2 SSE 7 11 4 6 1021.3 1020.2 0.0
29/03:30am 19.6 18.4 11.6 60 4.4 SSE 9 11 5 6 1021.1 1020.0 0.0
29/03:00am 19.7 18.1 12.7 64 4.0 SSE 13 13 7 7 1021.2 1020.1 0.0
29/02:30am 19.9 18.7 12.7 63 4.1 SE 11 13 6 7 1021.3 1020.2 0.0
29/02:00am 20.2 19.1 11.9 59 4.7 SE 9 11 5 6 1021.6 1020.5 0.0
29/01:30am 20.2 19.2 12.2 60 4.5 SE 9 9 5 5 1021.5 1020.4 0.0
29/01:00am 21.1 19.7 12.3 57 5.0 SSE 11 13 6 7 1021.6 1020.5 0.0
29/12:30am 22.6 19.8 5.1 32 8.8 SE 9 11 5 6 1021.6 1020.5 0.0
29/12:00am 22.9 21.2 5.8 33 8.7 E 4 9 2 5 1021.8 1020.7 0.0
 
Date/Time
CDT
Temp
°C
App
Temp
°C
Dew
Point
Rel
Hum
%
Delta-T
°C
Wind Press
QNH
hPa
Press
MSL
hPa
Rain
since 9 am
mm
Dir
 
Spd
km/h
Gust
km/h
Spd
kts
Gust
kts
28/11:30pm 22.7 20.2 4.7 31 9.0 ESE 7 9 4 5 1021.9 1020.8 0.0
28/11:00pm 23.6 21.1 1.3 23 10.5 ESE 4 7 2 4 1022.2 1021.0 0.0
28/10:30pm 23.9 20.3 0.9 22 10.8 ESE 9 15 5 8 1021.9 1020.8 0.0
28/10:00pm 24.0 20.4 0.4 21 11.0 ESE 9 9 5 5 1021.8 1020.7 0.0
28/09:30pm 25.0 21.5 -1.7 17 12.0 SE 7 9 4 5 1021.5 1020.4 0.0
28/09:00pm 25.1 22.0 -2.5 16 12.2 SSE 4 6 2 3 1021.5 1020.4 0.0
28/08:30pm 25.4 23.1 -2.2 16 12.3 CALM 0 0 0 0 1021.2 1020.1 0.0
28/08:00pm 25.2 22.9 -2.4 16 12.3 CALM 0 0 0 0 1021.2 1020.1 0.0
28/07:30pm 25.6 22.2 -2.1 16 12.4 E 6 9 3 5 1020.6 1019.5 0.0
28/07:00pm 26.1 23.0 -2.5 15 12.8 E 4 7 2 4 1020.4 1019.3 0.0
28/06:30pm 26.2 22.2 -2.4 15 12.8 E 9 13 5 7 1020.0 1018.9 0.0
28/06:00pm 26.5 22.5 -2.2 15 12.9 ENE 9 15 5 8 1019.8 1018.7 0.0
28/05:30pm 26.7 22.7 -2.1 15 13.0 ESE 9 19 5 10 1019.7 1018.6 0.0
28/05:00pm 27.6 24.2 -2.3 14 13.6 ENE 6 13 3 7 1019.8 1018.7 0.0
28/04:30pm 26.8 22.8 -2.0 15 13.1 NE 9 20 5 11 1019.8 1018.7 0.0
28/04:00pm 26.1 21.4 -1.7 16 12.6 E 13 26 7 14 1020.3 1019.2 0.0
28/03:30pm 26.4 22.0 -2.3 15 12.9 NNE 11 17 6 9 1020.4 1019.3 0.0
28/03:00pm 25.9 21.3 -1.0 17 12.3 ENE 13 20 7 11 1020.9 1019.8 0.0
28/02:30pm 26.4 21.9 -0.6 17 12.5 ENE 13 24 7 13 1021.2 1020.1 0.0
28/02:00pm 25.8 22.0 -1.1 17 12.3 E 9 17 5 9 1022.1 1020.9 0.0
28/01:30pm 24.6 19.7 -0.5 19 11.5 NE 15 26 8 14 1022.6 1021.5 0.0
28/01:00pm 24.4 18.6 0.0 20 11.3 NNE 20 33 11 18 1022.9 1021.8 0.0
28/12:30pm 24.1 18.0 0.4 21 11.0 NE 22 30 12 16 1023.4 1022.3 0.0
28/12:00pm 23.8 17.8 0.8 22 10.7 NE 22 32 12 17 1023.6 1022.5 0.0
28/11:30am 22.7 16.1 -0.1 22 10.3 NE 24 33 13 18 1024.0 1022.9 0.0
28/11:00am 21.5 14.5 -0.5 23 9.9 NE 26 35 14 19 1024.2 1023.1 0.0
28/10:30am 20.5 13.5 -0.7 24 9.3 ENE 26 32 14 17 1024.6 1023.5 0.0
28/10:00am 19.4 13.2 -0.6 26 8.8 ENE 22 26 12 14 1024.2 1023.1 0.0
28/09:30am 18.3 12.4 -0.5 28 8.2 ENE 20 26 11 14 1024.1 1023.0 0.0
28/09:00am 16.7 11.0 -0.5 31 7.4 ENE 19 22 10 12 1023.7 1022.6 0.0
28/08:30am 15.4 9.6 -0.4 34 6.7 ENE 20 24 11 13 1023.6 1022.5 0.0
28/08:00am 13.7 8.1 -0.3 38 5.9 E 19 20 10 11 1023.3 1022.2 0.0
28/07:30am 13.2 7.5 -0.4 39 5.6 E 19 20 10 11 1023.3 1022.2 0.0
28/07:00am 13.8 8.5 -0.3 38 5.9 E 17 19 9 10 1023.1 1022.0 0.0
28/06:30am 13.9 8.3 -0.2 38 5.9 E 19 20 10 11 1022.9 1021.8 0.0
28/06:00am 13.2 8.3 -0.8 38 5.8 E 15 17 8 9 1022.7 1021.6 0.0
28/05:30am 13.5 8.2 -0.9 37 5.9 ESE 17 17 9 9 1022.7 1021.6 0.0
28/05:00am 13.9 8.9 -0.9 36 6.1 ESE 15 17 8 9 1022.9 1021.8 0.0
28/04:30am 14.9 9.6 -0.4 35 6.4 E 17 19 9 10 1022.9 1021.8 0.0
28/04:00am 14.4 9.1 -0.5 36 6.3 E 17 19 9 10 1023.1 1022.0 0.0
28/03:30am 14.4 9.5 -0.5 36 6.2 ESE 15 17 8 9 1023.4 1022.3 0.0
28/03:00am 14.3 9.4 -0.6 36 6.2 ESE 15 17 8 9 1023.5 1022.4 0.0
28/02:30am 14.8 9.5 -0.9 34 6.5 ESE 17 19 9 10 1023.6 1022.5 0.0
28/02:00am 15.8 10.9 -0.4 33 6.9 E 15 17 8 9 1024.1 1023.0 0.0
28/01:30am 15.7 10.7 -0.9 32 7.0 E 15 19 8 10 1024.3 1023.2 0.0
28/01:00am 16.6 12.4 -0.6 31 7.4 E 11 15 6 8 1024.5 1023.4 0.0
28/12:30am 17.1 12.6 -0.6 30 7.6 E 13 13 7 7 1024.6 1023.5 0.0
28/12:00am 17.5 13.8 -0.2 30 7.7 ENE 9 11 5 6 1024.6 1023.5 0.0
 
Date/Time
CDT
Temp
°C
App
Temp
°C
Dew
Point
Rel
Hum
%
Delta-T
°C
Wind Press
QNH
hPa
Press
MSL
hPa
Rain
since 9 am
mm
Dir
 
Spd
km/h
Gust
km/h
Spd
kts
Gust
kts
27/11:30pm 17.5 13.0 -0.2 30 7.7 NE 13 13 7 7 1024.3 1023.2 0.0
27/11:00pm 18.0 13.4 -0.8 28 8.1 ENE 13 15 7 8 1024.5 1023.4 0.0
27/10:30pm 18.5 13.9 -0.8 27 8.3 E 13 15 7 8 1024.6 1023.5 0.0
27/10:00pm 18.7 14.5 -0.7 27 8.5 ENE 11 13 6 7 1024.5 1023.4 0.0
27/09:30pm 19.6 15.1 -0.4 26 8.8 NE 13 13 7 7 1024.3 1023.2 0.0
27/09:00pm 20.1 16.0 -0.5 25 9.1 ENE 11 13 6 7 1024.0 1022.9 0.0
27/08:30pm 21.0 16.9 -0.3 24 9.5 E 11 13 6 7 1023.7 1022.6 0.0
27/08:00pm 22.5 18.5 0.4 23 10.2 E 11 13 6 7 1023.4 1022.3 0.0
27/07:30pm 23.4 19.0 0.5 22 10.6 ESE 13 17 7 9 1023.1 1022.0 0.0
27/07:00pm 23.9 18.7 0.3 21 10.9 E 17 24 9 13 1023.0 1021.9 0.0
27/06:30pm 24.1 19.7 0.4 21 11.0 E 13 22 7 12 1022.9 1021.8 0.0
27/06:00pm 24.9 20.5 0.4 20 11.4 E 13 20 7 11 1022.9 1021.8 0.0
27/05:30pm 24.2 20.2 0.5 21 11.0 ESE 11 19 6 10 1022.9 1021.8 0.0
27/05:00pm 24.6 20.3 0.8 21 11.2 ENE 13 22 7 12 1023.3 1022.2 0.0

Other Formats:

Comma delimited format used in spreadsheet applications
http://www.bom.gov.au/fwo/IDS60801/IDS60801.95458.axf

JavaScript Object Notation format (JSON) in row-major order
http://www.bom.gov.au/fwo/IDS60801/IDS60801.95458.json